Time;durP1;ratioP1;P1;durP2;ratioP2;P2;SDS_P1;SDS_P2;PMS_P1;PMS_P2;Temp;Humidity;BMP_temperature;BMP_pressure;BME280_temperature;BME280_humidity;BME280_pressure;Samples;Min_cycle;Max_cycle;Signal;HPM_P1;HPM_P2
2021/12/30 00:01:34;;;;;;;35.72;23.20;;;6.60;99.90;;;6.95;81.46;100350.03;4881575;29;20219;-62
2021/12/30 00:04:03;;;;;;;32.53;22.58;;;6.70;99.90;;;6.96;81.49;100350.88;4880589;29;20197;-62
2021/12/30 00:06:38;;;;;;;34.00;21.75;;;6.70;99.90;;;6.87;81.48;100358.19;4880680;29;20191;-63
2021/12/30 00:09:08;;;;;;;28.48;21.00;;;6.70;99.90;;;6.77;81.66;100354.19;4880653;29;20557;-63
2021/12/30 00:11:38;;;;;;;29.85;19.63;;;6.70;99.90;;;6.46;82.64;100354.44;4880115;29;20668;-63
2021/12/30 00:14:06;;;;;;;31.90;20.85;;;6.50;99.90;;;6.68;82.72;100352.63;4880409;29;20183;-63
2021/12/30 00:16:36;;;;;;;30.77;20.17;;;6.50;99.90;;;6.86;82.55;100350.34;4880085;29;20218;-63
2021/12/30 00:19:05;;;;;;;26.98;20.13;;;6.60;99.90;;;6.54;82.71;100349.78;4879241;29;20229;-63
2021/12/30 00:21:34;;;;;;;31.75;21.80;;;6.50;99.90;;;6.55;82.43;100346.06;4879871;29;20214;-62
2021/12/30 00:24:02;;;;;;;29.83;18.95;;;6.50;99.90;;;6.57;82.92;100353.13;4880112;29;20202;-63
2021/12/30 00:26:30;;;;;;;29.15;18.40;;;6.50;99.90;;;6.49;82.93;100351.38;4879873;29;20258;-63
2021/12/30 00:28:59;;;;;;;29.65;21.60;;;6.50;99.90;;;6.48;83.06;100345.19;4880069;29;20273;-62
2021/12/30 00:31:28;;;;;;;28.55;20.27;;;6.40;99.90;;;6.61;83.15;100344.50;4879774;29;20233;-63
2021/12/30 00:33:58;;;;;;;27.65;19.80;;;6.40;99.90;;;6.48;83.30;100341.66;4880058;29;20688;-61
2021/12/30 00:36:26;;;;;;;26.58;18.50;;;6.40;99.90;;;6.32;83.52;100347.25;4880099;29;20186;-62
2021/12/30 00:38:54;;;;;;;31.05;20.15;;;6.40;99.90;;;6.30;83.39;100341.22;4879913;29;20191;-63
2021/12/30 00:41:23;;;;;;;26.20;18.50;;;6.30;99.90;;;6.28;83.40;100338.72;4879921;29;20247;-62
2021/12/30 00:43:51;;;;;;;29.38;20.58;;;6.30;99.90;;;6.53;83.13;100342.72;4879840;29;20262;-63
2021/12/30 00:46:19;;;;;;;30.90;21.60;;;6.40;99.90;;;6.34;83.49;100342.53;4879647;29;20186;-62
2021/12/30 00:48:48;;;;;;;34.20;22.00;;;6.30;99.90;;;6.33;83.69;100346.22;4879894;29;20191;-63
2021/12/30 00:51:17;;;;;;;31.85;20.25;;;6.30;99.90;;;6.37;83.99;100355.56;4879447;29;20255;-62
2021/12/30 00:53:46;;;;;;;25.40;18.33;;;6.30;99.90;;;6.35;83.55;100358.44;4879572;29;20600;-63
2021/12/30 00:56:14;;;;;;;29.15;20.23;;;6.30;99.90;;;6.40;83.41;100356.03;4879397;29;20270;-62
2021/12/30 00:58:43;;;;;;;28.20;20.00;;;6.30;99.90;;;6.34;83.55;100361.34;4879569;29;20191;-63
2021/12/30 01:01:11;;;;;;;27.65;20.40;;;6.30;99.90;;;6.40;83.84;100366.78;4880940;29;20211;-63
2021/12/30 01:03:40;;;;;;;25.60;18.30;;;6.30;99.90;;;6.31;83.74;100359.84;4880580;29;20195;-62
2021/12/30 01:06:09;;;;;;;24.67;17.45;;;6.30;99.90;;;6.41;83.35;100363.06;4879545;29;20182;-63
2021/12/30 01:08:39;;;;;;;29.50;19.80;;;6.30;99.90;;;6.52;82.68;100359.06;4879333;29;20532;-64
2021/12/30 01:11:08;;;;;;;27.70;19.10;;;6.40;99.90;;;6.33;83.45;100360.50;4916691;23;20229;-65
2021/12/30 01:13:44;;;;;;;27.45;19.95;;;6.30;99.90;;;6.43;83.19;100366.41;4918315;29;20197;-69
2021/12/30 01:16:18;;;;;;;26.63;19.10;;;6.30;99.90;;;6.57;82.82;100366.56;4919358;29;20348;-68
2021/12/30 01:19:01;;;;;;;29.67;20.33;;;6.40;99.90;;;6.38;83.53;100368.84;4918168;29;20240;-68
2021/12/30 01:21:34;;;;;;;24.70;19.67;;;6.30;99.90;;;6.50;83.29;100377.22;4917251;29;20557;-68
2021/12/30 01:24:04;;;;;;;29.83;20.02;;;6.40;99.90;;;6.46;82.99;100382.16;4917606;29;20201;-68
2021/12/30 01:26:33;;;;;;;28.67;19.83;;;6.40;99.90;;;6.48;83.12;100380.13;4917312;29;20189;-67
2021/12/30 01:29:02;;;;;;;27.55;20.63;;;6.40;99.90;;;6.53;83.16;100383.06;4917104;29;20174;-67
2021/12/30 01:31:30;;;;;;;23.25;16.50;;;6.40;99.90;;;6.46;83.08;100387.53;4917216;29;20757;-68
2021/12/30 01:34:19;;;;;;;26.98;20.08;;;6.40;99.90;;;6.68;83.03;100371.47;4917096;29;20241;-67
2021/12/30 01:36:47;;;;;;;23.80;17.15;;;6.50;99.90;;;6.59;83.03;100364.50;4916975;29;20197;-66
2021/12/30 01:39:19;;;;;;;24.20;17.88;;;6.50;99.90;;;6.67;82.26;100357.19;4917894;29;20559;-69
2021/12/30 01:41:51;;;;;;;23.83;18.95;;;6.60;99.90;;;6.55;82.89;100353.31;4917981;29;20212;-68
2021/12/30 01:44:21;;;;;;;25.70;19.98;;;6.50;99.90;;;6.50;82.97;100356.56;4918557;29;20193;-68
2021/12/30 01:46:51;;;;;;;24.17;16.92;;;6.40;99.90;;;6.54;82.22;100357.84;4919781;29;20227;-68
2021/12/30 01:49:21;;;;;;;25.67;19.00;;;6.50;99.90;;;6.40;82.64;100371.31;4918608;29;20209;-68
2021/12/30 01:51:54;;;;;;;21.55;17.50;;;6.40;99.90;;;6.35;82.59;100385.31;4926831;29;20221;-69
2021/12/30 01:54:25;;;;;;;26.35;18.52;;;6.30;99.90;;;6.43;83.07;100385.22;4926755;29;20265;-67
2021/12/30 01:56:57;;;;;;;20.85;16.77;;;6.40;99.90;;;6.49;83.30;100368.31;4921516;29;20289;-68
2021/12/30 01:59:25;;;;;;;22.58;17.98;;;6.40;99.90;;;6.61;83.17;100362.47;4920740;29;20639;-67
2021/12/30 02:01:56;;;;;;;22.95;18.10;;;6.40;99.90;;;6.62;82.77;100356.06;4920682;29;20237;-70
2021/12/30 02:04:33;;;;;;;19.63;16.63;;;6.50;99.90;;;6.67;82.77;100361.72;4923422;29;20201;-67
2021/12/30 02:07:02;;;;;;;20.17;16.17;;;6.50;99.90;;;6.69;82.27;100373.09;4919254;29;20204;-68
2021/12/30 02:09:32;;;;;;;23.23;18.58;;;6.50;99.90;;;6.68;82.26;100360.69;4919935;29;20186;-67
2021/12/30 02:12:02;;;;;;;26.88;17.75;;;6.60;99.90;;;6.77;82.58;100359.56;4917542;28;20688;-69
2021/12/30 02:14:34;;;;;;;24.33;17.50;;;6.60;99.90;;;6.60;82.24;100356.25;4916350;29;20670;-68
2021/12/30 02:17:05;;;;;;;20.55;17.63;;;6.60;99.90;;;6.76;81.98;100377.53;4916610;29;20198;-66
2021/12/30 02:19:34;;;;;;;24.30;18.23;;;6.60;99.90;;;6.72;82.04;100370.06;4916711;29;20241;-68
2021/12/30 02:22:04;;;;;;;19.70;16.80;;;6.60;99.90;;;6.72;82.66;100364.69;4916819;29;20186;-68
2021/12/30 02:24:37;;;;;;;21.80;17.75;;;6.60;99.90;;;6.66;82.38;100360.06;4916496;29;20189;-69
2021/12/30 02:27:05;;;;;;;23.10;18.45;;;6.60;99.90;;;6.74;82.44;100359.91;4917101;29;20198;-68
2021/12/30 02:29:34;;;;;;;23.63;19.20;;;6.60;99.90;;;6.77;82.69;100359.56;4917553;29;20201;-68
2021/12/30 02:32:04;;;;;;;25.92;20.13;;;6.60;99.90;;;6.76;82.59;100358.72;4916996;29;20450;-67
2021/12/30 02:34:33;;;;;;;22.83;18.75;;;6.60;99.90;;;6.75;82.92;100364.28;4919264;29;20202;-68
2021/12/30 02:37:03;;;;;;;27.20;20.52;;;6.60;99.90;;;6.89;82.25;100360.72;4918345;29;20181;-67
2021/12/30 02:39:33;;;;;;;22.13;17.60;;;6.70;99.90;;;6.86;82.58;100364.63;4917132;29;20189;-70
2021/12/30 02:42:01;;;;;;;23.52;19.02;;;6.70;99.90;;;6.86;82.28;100366.47;4918240;29;20553;-69
2021/12/30 02:44:30;;;;;;;23.55;19.50;;;6.70;99.90;;;6.94;82.20;100359.13;4918544;29;20546;-68
2021/12/30 02:46:59;;;;;;;24.10;18.27;;;6.80;99.90;;;6.87;82.34;100373.53;4919039;29;20556;-69
2021/12/30 02:49:27;;;;;;;25.23;16.77;;;6.80;99.90;;;6.92;82.31;100363.03;4918251;29;20193;-68
2021/12/30 02:51:56;;;;;;;22.90;18.20;;;6.80;99.90;;;7.01;82.18;100367.25;4920208;29;20210;-68
2021/12/30 02:54:26;;;;;;;26.00;18.30;;;6.80;99.90;;;6.96;82.36;100367.00;4919816;29;20691;-67
2021/12/30 02:56:54;;;;;;;28.75;19.70;;;6.80;99.90;;;6.97;82.65;100374.06;4919764;29;20244;-68
2021/12/30 02:59:26;;;;;;;30.83;18.88;;;6.90;99.90;;;7.05;82.01;100376.59;4918338;29;20178;-67
2021/12/30 03:01:55;;;;;;;27.65;17.70;;;6.90;99.90;;;7.11;81.76;100381.22;4916921;29;20706;-69
2021/12/30 03:04:27;;;;;;;24.35;17.38;;;6.90;99.90;;;7.02;82.20;100382.34;4916770;29;20196;-67
2021/12/30 03:06:55;;;;;;;31.27;19.63;;;6.90;99.90;;;7.06;82.72;100389.03;4916295;29;20190;-69
2021/12/30 03:09:24;;;;;;;21.65;17.77;;;6.90;99.90;;;6.97;82.46;100391.00;4916361;29;20280;-67
2021/12/30 03:11:56;;;;;;;22.05;17.00;;;6.90;99.90;;;6.94;82.91;100390.56;4916223;29;20232;-68
2021/12/30 03:14:26;;;;;;;25.10;18.35;;;6.90;99.90;;;7.00;83.03;100389.81;4916547;29;20281;-68
2021/12/30 03:16:54;;;;;;;22.23;16.95;;;6.90;99.90;;;6.99;83.04;100390.81;4915940;29;20186;-69
2021/12/30 03:19:23;;;;;;;22.33;17.05;;;6.90;99.90;;;6.98;83.47;100397.22;4916166;29;20190;-69
2021/12/30 03:21:55;;;;;;;23.10;17.85;;;6.90;99.90;;;6.98;83.40;100397.22;4917136;29;20631;-68
2021/12/30 03:24:24;;;;;;;25.85;18.42;;;6.90;99.90;;;6.98;83.83;100400.75;4919479;29;20225;-68
2021/12/30 03:26:53;;;;;;;20.20;16.88;;;6.90;99.90;;;7.09;83.71;100401.25;4919749;29;20193;-68
2021/12/30 03:29:22;;;;;;;21.73;17.42;;;6.90;99.90;;;7.14;83.35;100401.53;4920383;29;20213;-67
2021/12/30 03:31:51;;;;;;;20.35;17.13;;;7.00;99.90;;;7.13;83.38;100411.44;4919769;29;20312;-67
2021/12/30 03:34:23;;;;;;;21.40;15.05;;;7.00;99.90;;;7.22;83.04;100413.00;4919722;29;20200;-67
2021/12/30 03:36:53;;;;;;;17.77;14.90;;;7.10;99.90;;;7.18;83.66;100405.50;4919724;29;20204;-68
2021/12/30 03:39:22;;;;;;;21.02;14.90;;;7.10;99.90;;;7.15;83.69;100404.03;4919459;29;20197;-68
2021/12/30 03:41:51;;;;;;;19.27;14.35;;;7.10;99.90;;;7.30;83.54;100406.66;4919784;29;20213;-67
2021/12/30 03:44:21;;;;;;;16.65;13.40;;;7.10;99.90;;;7.29;83.42;100405.00;4920876;29;20193;-70
2021/12/30 03:46:49;;;;;;;15.93;12.60;;;7.20;99.90;;;7.41;83.44;100400.75;4921682;29;20182;-69
2021/12/30 03:49:18;;;;;;;16.35;13.55;;;7.20;99.90;;;7.35;83.33;100409.63;4921394;29;20213;-68
2021/12/30 03:51:47;;;;;;;14.70;12.48;;;7.20;99.90;;;7.51;83.00;100424.63;4919820;29;20220;-68
2021/12/30 03:54:15;;;;;;;16.05;13.40;;;7.30;99.90;;;7.43;83.33;100426.47;4919212;29;20210;-67
2021/12/30 03:56:44;;;;;;;15.82;13.18;;;7.30;99.90;;;7.48;83.01;100431.25;4918944;29;20233;-69
2021/12/30 03:59:13;;;;;;;15.65;12.38;;;7.30;99.90;;;7.41;83.97;100425.81;4919253;29;20196;-67
2021/12/30 04:01:43;;;;;;;18.67;13.80;;;7.30;99.90;;;7.48;84.01;100435.81;4919014;29;20212;-67
2021/12/30 04:04:12;;;;;;;15.00;12.32;;;7.30;99.90;;;7.36;83.90;100447.09;4918986;29;20194;-68
2021/12/30 04:06:40;;;;;;;15.77;13.15;;;7.30;99.90;;;7.34;84.21;100465.31;4918884;29;20212;-67
2021/12/30 04:09:09;;;;;;;16.85;14.43;;;7.30;99.90;;;7.46;84.33;100462.06;4919352;29;20201;-69
2021/12/30 04:11:40;;;;;;;16.52;11.68;;;7.30;99.90;;;7.42;84.39;100469.72;4919121;29;20239;-69
2021/12/30 04:14:09;;;;;;;16.95;14.05;;;7.30;99.90;;;7.40;84.68;100486.06;4919080;29;20198;-67
2021/12/30 04:16:37;;;;;;;18.35;13.50;;;7.30;99.90;;;7.53;84.28;100495.28;4919225;29;20189;-67
2021/12/30 04:19:08;;;;;;;20.25;13.23;;;7.40;99.90;;;7.47;84.68;100499.59;4918936;29;20204;-68
2021/12/30 04:21:38;;;;;;;18.23;14.55;;;7.40;99.90;;;7.48;85.30;100514.72;4918962;29;20221;-67
2021/12/30 04:24:07;;;;;;;24.58;15.10;;;7.40;99.90;;;7.50;85.11;100509.16;4918501;29;20490;-67
2021/12/30 04:26:35;;;;;;;21.35;15.50;;;7.40;99.90;;;7.51;85.38;100500.88;4918410;29;20185;-68
2021/12/30 04:29:04;;;;;;;28.02;16.65;;;7.40;99.90;;;7.61;84.96;100512.16;4917388;29;20262;-69
2021/12/30 04:31:33;;;;;;;26.13;17.00;;;7.50;99.90;;;7.66;85.09;100519.66;4918065;29;20665;-68
2021/12/30 04:34:02;;;;;;;28.45;17.05;;;7.50;99.90;;;7.63;85.42;100514.66;4918027;29;20199;-67
2021/12/30 04:36:31;;;;;;;35.78;18.33;;;7.50;99.90;;;7.65;85.09;100512.63;4929544;29;20204;-68
2021/12/30 04:39:03;;;;;;;30.25;17.85;;;7.50;99.90;;;7.58;85.40;100514.41;4927727;29;20201;-69
2021/12/30 04:41:32;;;;;;;33.40;18.00;;;7.50;99.90;;;7.65;85.73;100518.81;4918846;29;20293;-68
2021/12/30 04:44:00;;;;;;;35.80;20.48;;;7.50;99.90;;;7.71;85.50;100518.06;4918728;29;20221;-68
2021/12/30 04:46:29;;;;;;;27.13;18.52;;;7.60;99.90;;;7.71;85.27;100528.84;4917619;29;20213;-68
2021/12/30 04:48:57;;;;;;;34.38;21.05;;;7.60;99.90;;;7.71;85.43;100533.38;4918390;29;20598;-68
2021/12/30 04:51:26;;;;;;;36.22;19.00;;;7.60;99.90;;;7.72;85.44;100532.34;4917779;29;20220;-68
2021/12/30 04:53:55;;;;;;;39.95;21.60;;;7.60;99.90;;;7.70;85.68;100534.41;4917720;29;20229;-67
2021/12/30 04:56:24;;;;;;;44.05;22.17;;;7.60;99.90;;;7.72;85.87;100529.66;4917437;29;20687;-67
2021/12/30 04:58:53;;;;;;;41.03;23.38;;;7.60;99.90;;;7.73;85.40;100525.94;4917460;29;20500;-67
2021/12/30 05:01:21;;;;;;;36.90;21.90;;;7.60;99.90;;;7.72;85.46;100545.81;4917200;29;20687;-67
2021/12/30 05:03:50;;;;;;;44.40;23.02;;;7.60;99.90;;;7.74;85.57;100543.78;4917621;29;20298;-67
2021/12/30 05:06:19;;;;;;;41.05;22.27;;;7.60;99.90;;;7.82;85.57;100532.88;4917642;29;20635;-68
2021/12/30 05:08:48;;;;;;;40.13;23.65;;;7.70;99.90;;;7.89;85.28;100528.38;4917641;29;20522;-68
2021/12/30 05:11:18;;;;;;;36.42;22.40;;;7.70;99.90;;;7.91;85.45;100528.19;4917018;29;20694;-67
2021/12/30 05:13:47;;;;;;;40.72;22.88;;;7.70;99.90;;;8.03;84.82;100527.47;4917417;29;20217;-68
2021/12/30 05:16:16;;;;;;;39.70;21.38;;;7.90;99.90;;;7.99;84.94;100528.88;4917015;29;20189;-67
2021/12/30 05:18:46;;;;;;;38.55;21.73;;;7.90;99.90;;;8.08;84.59;100541.22;4917119;29;20189;-68
2021/12/30 05:21:14;;;;;;;39.17;21.65;;;7.90;99.90;;;8.04;84.79;100539.06;4917241;29;20214;-68
2021/12/30 05:23:42;;;;;;;36.28;21.30;;;7.90;99.90;;;8.15;84.44;100542.06;4917168;29;20189;-67
2021/12/30 05:26:11;;;;;;;40.80;23.00;;;8.00;99.90;;;8.14;84.54;100544.97;4918727;29;20189;-68
2021/12/30 05:28:41;;;;;;;38.20;24.02;;;8.00;99.90;;;8.14;84.67;100550.34;4917185;29;20198;-68
2021/12/30 05:31:09;;;;;;;35.72;22.45;;;8.00;99.90;;;8.06;84.87;100542.41;4916527;29;20232;-68
2021/12/30 05:33:39;;;;;;;41.83;25.38;;;8.00;99.90;;;8.22;84.56;100548.38;4916544;29;20264;-68
2021/12/30 05:36:07;;;;;;;43.00;24.13;;;8.10;99.90;;;8.20;84.70;100554.97;4916243;29;20190;-68
2021/12/30 05:38:35;;;;;;;44.70;24.08;;;8.00;99.90;;;8.15;84.63;100547.47;4916661;29;20194;-67
2021/12/30 05:41:04;;;;;;;37.03;23.90;;;8.00;99.90;;;8.23;84.45;100555.41;4915274;29;20316;-68
2021/12/30 05:43:32;;;;;;;52.75;25.30;;;8.10;99.90;;;8.25;84.61;100574.94;4916484;29;20174;-68
2021/12/30 05:46:03;;;;;;;45.47;25.02;;;8.10;99.90;;;8.30;84.27;100568.97;4915626;29;20200;-68
2021/12/30 05:48:32;;;;;;;39.28;23.33;;;8.10;99.90;;;8.23;84.70;100576.13;4916411;29;20193;-68
2021/12/30 05:51:01;;;;;;;49.38;24.27;;;8.10;99.90;;;8.26;84.78;100582.00;4915742;29;20268;-67
2021/12/30 05:53:31;;;;;;;42.85;25.05;;;8.10;99.90;;;8.35;84.37;100579.19;4916199;29;20228;-67
2021/12/30 05:55:59;;;;;;;44.38;25.25;;;8.20;99.90;;;8.32;84.43;100585.81;4916034;29;20253;-67
2021/12/30 05:58:27;;;;;;;42.40;24.73;;;8.20;99.90;;;8.35;84.21;100587.25;4915798;29;20203;-67
2021/12/30 06:00:56;;;;;;;50.28;22.98;;;8.20;99.90;;;8.41;84.18;100589.19;4915909;29;20294;-68
2021/12/30 06:03:26;;;;;;;46.28;24.30;;;8.20;99.90;;;8.41;84.15;100590.03;4916053;29;20262;-68
2021/12/30 06:05:54;;;;;;;38.20;20.88;;;8.20;99.90;;;8.42;83.82;100588.16;4915763;29;20178;-67
2021/12/30 06:08:23;;;;;;;34.22;22.95;;;8.30;99.90;;;8.41;84.05;100589.19;4916072;29;20267;-68
2021/12/30 06:10:51;;;;;;;40.33;24.20;;;8.30;99.90;;;8.27;84.40;100583.66;4916097;29;20706;-68
2021/12/30 06:13:20;;;;;;;33.25;21.67;;;8.20;99.90;;;8.39;84.26;100586.69;4916340;29;20273;-67
2021/12/30 06:15:48;;;;;;;34.65;22.00;;;8.20;99.90;;;8.46;84.14;100586.75;4917155;29;20201;-67
2021/12/30 06:18:17;;;;;;;34.80;21.10;;;8.30;99.90;;;8.48;83.99;100590.06;4915925;29;20193;-66
2021/12/30 06:20:47;;;;;;;37.88;21.50;;;8.30;99.90;;;8.49;84.13;100602.50;4916381;29;20232;-67
2021/12/30 06:23:15;;;;;;;34.15;21.85;;;8.30;99.90;;;8.50;84.03;100602.34;4916441;29;20173;-67
2021/12/30 06:25:43;;;;;;;37.00;21.75;;;8.30;99.90;;;8.51;84.26;100603.16;4916085;29;20196;-68
2021/12/30 06:28:12;;;;;;;40.63;22.30;;;8.30;99.90;;;8.53;83.95;100599.22;4916900;29;20193;-67
2021/12/30 06:30:40;;;;;;;35.95;22.70;;;8.40;99.90;;;8.58;83.73;100604.03;4917799;29;20209;-68
2021/12/30 06:33:09;;;;;;;31.88;20.10;;;8.40;99.90;;;8.50;83.85;100609.59;4918591;29;20216;-68
2021/12/30 06:35:37;;;;;;;38.60;20.88;;;8.40;99.90;;;8.27;84.09;100605.22;4918242;29;20193;-68
2021/12/30 06:38:07;;;;;;;40.33;23.60;;;8.30;99.90;;;8.35;84.18;100617.75;4917233;29;20198;-68
2021/12/30 06:40:36;;;;;;;33.05;20.55;;;8.30;99.90;;;8.08;84.25;100605.88;4916109;29;20218;-68
2021/12/30 06:43:04;;;;;;;38.20;21.05;;;8.10;99.90;;;8.01;84.88;100610.38;4916025;29;20200;-68
2021/12/30 06:45:33;;;;;;;43.45;19.80;;;8.10;99.90;;;7.93;84.72;100623.97;4916376;29;20599;-68
2021/12/30 06:48:02;;;;;;;45.33;22.88;;;8.00;99.90;;;7.73;85.21;100633.69;4916001;29;20194;-68
2021/12/30 06:50:32;;;;;;;38.47;22.60;;;7.90;99.90;;;7.74;85.33;100630.81;4916456;29;20221;-68
2021/12/30 06:53:01;;;;;;;36.92;22.52;;;7.80;99.90;;;7.57;85.78;100625.81;4916831;29;20205;-67
2021/12/30 06:55:31;;;;;;;44.60;21.30;;;7.70;99.90;;;7.47;85.98;100644.13;4916238;29;20228;-67
2021/12/30 06:57:59;;;;;;;39.13;21.10;;;7.60;99.90;;;7.56;85.42;100643.00;4918610;29;20252;-67
2021/12/30 07:00:28;;;;;;;36.55;20.35;;;7.60;99.90;;;7.44;85.98;100645.34;4919725;29;20300;-68
2021/12/30 07:02:57;;;;;;;47.83;22.38;;;7.50;99.90;;;7.51;85.87;100645.41;4919475;29;20197;-67
2021/12/30 07:05:25;;;;;;;42.25;22.88;;;7.50;99.90;;;7.45;85.88;100646.19;4920690;29;20611;-68
2021/12/30 07:07:54;;;;;;;47.28;21.92;;;7.50;99.90;;;7.37;86.09;100656.03;4924185;29;20311;-67
2021/12/30 07:10:22;;;;;;;44.00;22.77;;;7.40;99.90;;;7.35;86.18;100657.25;4939623;23;20205;-63
2021/12/30 07:12:52;;;;;;;38.90;22.20;;;7.40;99.90;;;7.27;86.19;100660.84;4916612;29;20205;-62
2021/12/30 07:15:22;;;;;;;35.58;23.13;;;7.40;99.90;;;7.28;86.60;100654.47;4918975;29;20713;-63
2021/12/30 07:17:55;;;;;;;40.08;21.52;;;7.30;99.90;;;7.35;86.50;100666.16;4919208;29;20185;-64
2021/12/30 07:20:24;;;;;;;52.65;24.02;;;7.40;99.90;;;7.57;86.51;100687.75;4919091;29;20214;-65
2021/12/30 07:22:52;;;;;;;48.38;23.48;;;7.50;99.90;;;7.63;86.25;100682.47;4919145;29;20192;-61
2021/12/30 07:25:20;;;;;;;56.33;23.15;;;7.50;99.90;;;7.63;86.48;100693.25;4918696;29;20186;-62
2021/12/30 07:27:53;;;;;;;53.78;24.50;;;7.50;99.90;;;7.88;86.50;100688.38;4917472;29;20200;-63
2021/12/30 07:30:23;;;;;;;41.08;24.25;;;7.70;99.90;;;7.90;86.35;100685.47;4918842;29;20178;-63
2021/12/30 07:32:53;;;;;;;51.63;24.83;;;7.70;99.90;;;7.94;86.26;100690.28;4919109;29;20280;-63
2021/12/30 07:35:26;;;;;;;40.92;21.48;;;7.80;99.90;;;8.04;86.31;100696.19;4918523;29;20259;-63
2021/12/30 07:37:55;;;;;;;39.40;20.13;;;7.90;99.90;;;8.06;86.03;100696.84;4918706;29;20194;-63
2021/12/30 07:40:23;;;;;;;50.90;23.67;;;7.90;99.90;;;7.92;86.47;100694.19;4918668;29;20177;-62
2021/12/30 07:42:53;;;;;;;42.55;21.40;;;7.90;99.90;;;8.18;85.91;100694.50;4918495;29;20190;-64
2021/12/30 07:45:21;;;;;;;47.10;24.05;;;8.00;99.90;;;8.16;86.02;100696.53;4918708;29;20178;-64
2021/12/30 07:47:51;;;;;;;51.30;22.60;;;8.00;99.90;;;8.12;85.48;100693.41;4918718;29;20685;-64
2021/12/30 07:50:20;;;;;;;54.13;21.65;;;8.00;99.90;;;8.23;85.25;100690.19;4918296;29;20257;-63
2021/12/30 07:52:49;;;;;;;33.95;19.25;;;8.00;99.90;;;8.08;85.08;100702.91;4918211;29;20199;-63
2021/12/30 07:55:18;;;;;;;34.67;19.98;;;8.00;99.90;;;7.92;85.31;100696.91;4918234;29;20209;-63
2021/12/30 07:57:46;;;;;;;31.02;19.48;;;7.90;99.90;;;7.93;85.48;100688.63;4917985;29;20209;-62
2021/12/30 08:00:19;;;;;;;33.00;20.67;;;7.90;99.90;;;7.99;85.59;100695.94;4918077;29;20217;-63
2021/12/30 08:02:47;;;;;;;44.08;20.20;;;7.90;99.90;;;7.92;85.43;100695.03;4918536;29;20276;-62
2021/12/30 08:05:19;;;;;;;42.22;20.58;;;7.90;99.90;;;7.93;85.81;100694.03;4918111;29;20193;-63
2021/12/30 08:07:48;;;;;;;38.22;20.92;;;7.90;99.90;;;7.90;85.76;100693.53;4918692;29;20182;-63
2021/12/30 08:10:19;;;;;;;36.85;20.23;;;7.80;99.90;;;8.00;85.69;100696.78;4918050;29;20273;-62
2021/12/30 08:12:48;;;;;;;46.92;22.90;;;7.90;99.90;;;7.88;86.05;100691.06;4918468;29;20237;-62
2021/12/30 08:15:19;;;;;;;47.80;20.80;;;7.90;99.90;;;7.99;86.55;100687.84;4918896;29;20221;-63
2021/12/30 08:17:50;;;;;;;30.92;19.70;;;7.90;99.90;;;8.24;86.61;100686.47;4918569;29;20189;-63
2021/12/30 08:20:21;;;;;;;41.65;21.90;;;8.00;99.90;;;8.38;85.92;100675.84;4918135;29;20646;-63
2021/12/30 08:22:52;;;;;;;42.95;21.63;;;8.20;99.90;;;8.47;85.75;100677.41;4917894;29;20181;-62
2021/12/30 08:25:22;;;;;;;34.03;20.00;;;8.30;99.90;;;8.71;85.05;100679.69;4917554;29;20655;-63
2021/12/30 08:27:51;;;;;;;36.10;19.52;;;8.40;99.90;;;8.78;84.46;100687.81;4917891;29;20182;-63
2021/12/30 08:30:21;;;;;;;40.28;17.98;;;8.50;99.90;;;8.76;84.41;100690.72;4917622;29;20264;-63
2021/12/30 08:32:50;;;;;;;33.30;19.15;;;8.60;99.90;;;8.93;83.97;100686.69;4917835;29;20224;-63
2021/12/30 08:35:21;;;;;;;40.15;19.42;;;8.60;99.90;;;8.93;83.95;100688.56;4916083;29;20272;-62
2021/12/30 08:37:52;;;;;;;37.80;18.73;;;8.70;99.90;;;9.01;83.54;100697.34;4917904;29;20224;-62
2021/12/30 08:40:20;;;;;;;41.28;20.30;;;8.80;99.90;;;9.11;83.49;100700.53;4917944;29;20567;-63
2021/12/30 08:42:49;;;;;;;34.25;18.77;;;8.80;99.90;;;9.20;82.84;100705.78;4917490;29;20193;-63
2021/12/30 08:45:19;;;;;;;31.25;23.92;;;8.90;99.90;;;9.11;83.26;100703.22;4917246;29;20186;-62
2021/12/30 08:47:49;;;;;;;30.95;17.75;;;9.00;99.90;;;9.13;83.03;100698.47;4917375;29;20183;-63
2021/12/30 08:50:18;;;;;;;33.67;17.23;;;9.00;99.90;;;9.09;83.37;100690.97;4917315;29;20178;-65
2021/12/30 08:52:49;;;;;;;34.30;18.88;;;8.90;99.90;;;9.15;83.46;100691.00;4917428;29;20422;-64
2021/12/30 08:55:18;;;;;;;30.90;18.08;;;9.00;99.90;;;9.34;83.00;100707.53;4917296;29;20292;-64
2021/12/30 08:57:49;;;;;;;32.70;18.58;;;9.10;99.90;;;9.38;82.52;100701.53;4917489;29;20205;-63
2021/12/30 09:00:23;;;;;;;37.28;19.77;;;9.10;99.90;;;9.37;82.73;100705.25;4917267;29;20535;-63
2021/12/30 09:02:54;;;;;;;29.75;15.63;;;9.20;99.90;;;9.47;82.53;100723.81;4917473;29;20196;-64
2021/12/30 09:05:25;;;;;;;31.13;17.90;;;9.20;99.90;;;9.57;82.12;100721.59;4917029;29;20213;-65
2021/12/30 09:07:54;;;;;;;31.05;16.30;;;9.30;99.90;;;9.65;81.62;100729.50;4896985;29;20438;-63
2021/12/30 09:10:24;;;;;;;29.27;17.10;;;9.40;99.90;;;9.51;82.19;100734.03;4879631;29;20202;-64
2021/12/30 09:12:54;;;;;;;26.23;17.63;;;9.40;99.90;;;9.62;81.91;100735.34;4879742;29;20990;-63
2021/12/30 09:15:25;;;;;;;25.42;15.43;;;9.40;99.90;;;9.54;82.07;100738.19;4879115;29;20555;-64
2021/12/30 09:17:55;;;;;;;31.83;19.23;;;9.40;99.90;;;9.59;82.45;100727.59;4879407;29;20191;-64
2021/12/30 09:20:24;;;;;;;24.03;15.80;;;9.40;99.90;;;9.70;81.99;100726.22;4878463;29;20218;-63
2021/12/30 09:22:54;;;;;;;27.73;17.93;;;9.50;99.90;;;9.80;81.60;100730.22;4879240;29;20472;-63
2021/12/30 09:25:24;;;;;;;30.17;17.33;;;9.50;99.90;;;9.91;80.90;100739.63;4879033;29;20439;-63
2021/12/30 09:27:55;;;;;;;31.37;15.67;;;9.70;99.90;;;10.02;80.67;100741.75;4879367;29;20441;-63
2021/12/30 09:30:27;;;;;;;25.87;16.10;;;9.70;99.90;;;10.04;80.75;100745.91;4879494;29;20949;-62
2021/12/30 09:33:00;;;;;;;31.80;17.27;;;9.80;99.90;;;10.14;80.43;100744.69;4879243;29;20435;-63
2021/12/30 09:35:30;;;;;;;21.70;16.23;;;9.90;99.90;;;10.03;80.53;100744.25;4878400;29;20511;-64
2021/12/30 09:37:59;;;;;;;24.70;14.30;;;9.80;99.90;;;9.94;81.07;100740.06;4879107;29;20420;-62
2021/12/30 09:40:29;;;;;;;23.80;15.03;;;9.70;99.90;;;10.17;80.45;100745.16;4880070;29;20455;-63
2021/12/30 09:43:04;;;;;;;29.73;15.20;;;9.80;99.90;;;10.19;80.21;100758.47;4879544;29;20478;-63
2021/12/30 09:45:37;;;;;;;29.73;16.23;;;9.90;99.90;;;10.15;80.17;100752.63;4878834;29;20501;-64
2021/12/30 09:48:11;;;;;;;34.77;16.90;;;10.00;99.90;;;10.03;80.57;100748.81;4879616;29;20842;-64
2021/12/30 09:50:42;;;;;;;27.10;15.60;;;9.90;99.90;;;10.25;79.89;100753.09;4878607;29;20507;-63
2021/12/30 09:53:11;;;;;;;21.90;14.60;;;10.00;99.90;;;10.29;79.51;100748.94;4879049;29;20406;-62
2021/12/30 09:55:41;;;;;;;30.70;15.03;;;10.10;99.90;;;10.24;79.57;100750.59;4878931;29;20479;-64
2021/12/30 09:58:09;;;;;;;27.23;14.57;;;10.10;99.90;;;9.99;80.51;100747.56;4881333;29;20431;-63
2021/12/30 10:00:38;;;;;;;40.77;15.43;;;9.90;99.90;;;9.97;80.83;100745.03;4897738;29;20485;-64
2021/12/30 10:03:09;;;;;;;22.50;15.40;;;9.90;99.90;;;10.34;80.93;100745.63;4910694;29;20480;-64
2021/12/30 10:05:41;;;;;;;27.23;14.33;;;10.00;99.90;;;10.22;80.01;100737.25;4924593;29;20463;-63
2021/12/30 10:08:19;;;;;;;30.37;14.57;;;10.00;99.90;;;10.18;79.93;100729.75;4916439;29;20528;-62
2021/12/30 10:10:51;;;;;;;34.47;15.87;;;10.00;99.90;;;10.14;80.23;100729.31;4901143;29;20473;-63
2021/12/30 10:13:26;;;;;;;26.40;16.30;;;10.00;99.90;;;10.16;80.04;100738.09;4916518;29;20389;-62
2021/12/30 10:15:59;;;;;;;27.10;14.53;;;10.00;99.90;;;10.14;80.41;100733.88;4909017;29;21007;-64
2021/12/30 10:18:44;;;;;;;25.87;14.50;;;10.00;99.90;;;10.28;79.49;100730.19;4897096;29;20414;-63
2021/12/30 10:21:17;;;;;;;35.13;16.07;;;10.10;99.90;;;10.13;80.03;100732.19;4914904;29;20460;-64
2021/12/30 10:23:50;;;;;;;23.77;14.80;;;10.00;99.90;;;10.12;80.03;100735.97;4915314;29;20607;-62